Trio, South Carolina
Current Conditions -  °F | °C
As of 5:35 AM on Wednesday 26 Nov 2014 (Local Time) from KMKS Reporting Station
Moderate Rain Moderate Rain  
Wind Chill: 57°   Ceiling: NA
Heat Index: 57°   Visibility: 5mi
Dew Point: 57°   Wind: 3mph
Humidity: 100%   Direction: 340°NNW
Pressure: 29.82"   Gusts: NA
Location:  33.565°N, 79.8266°W
Report Text: KMKS 261035Z AUTO 34003KT 5SM RA 14/14 A2982 RMK AO2 P0004
Loading
Personal Weather Stations






























Interactive Weather Map New forecast layout! Learn more

10-Day Weather Forecast

Advertisements
Track Severe Weather on mobile